EFSA

Savonlinna Airport

Savonlinna, Finland
METAR EFSA 220620Z AUTO 02006KT 340V080 9999 SCT026 02/M05 Q1009
Observed Flight Rules
Apr-22 @ 06:20 UTC (38 minutes ago) Visual Flight Rules
Wind Visibility Clouds
20° at 6 knots 10,000+ meters
  • Scattered at 2,600' AGL
Temperatures Readings
Current 2°C / 36°F
Dewpoint -5°C / 23°F
Humidity 60%
Altimeter 29.79" Hg
Pressure 1009 hPa
Elevation 95
METAR EFSA 220620Z AUTO 02006KT 340V080 9999 SCT026 02/M05 Q1009
Observed Flight Rules
Apr-22 @ 06:20 UTC
(38 minutes ago)
VFR
Wind Visibility
20° at 6 knots 10,000+ meters
Clouds
  • Scattered at 2,600' AGL
Temperature Dewpoint
2°C / 36°F -5°C / 23°F
Humidity Altimeter Pressure
60% 29.79" Hg 1009 hPa